Time,TemperatureF,DewpointF,PressureIn,WindDirection,WindDirectionDegrees,WindSpeedMPH,WindSpeedGustMPH,Humidity,HourlyPrecipIn,Conditions,Clouds,dailyrainin,SolarRadiationWatts/m^2,SoftwareType,DateUTC
2013-08-20 00:01:00,62.9,59.9,29.99,West,269,0.0,0.0,90,0.00,,---,0.00,0.00,VWS V14.01,2013-08-20 04:01:00,
2013-08-20 00:02:00,62.9,59.9,29.99,West,269,0.0,0.0,90,0.00,,---,0.00,0.00,VWS V14.01,2013-08-20 04:02:00,
2013-08-20 00:07:00,62.9,59.9,29.99,West,269,0.0,0.0,90,0.00,,---,0.00,0.00,VWS V14.01,2013-08-20 04:07:00,
2013-08-20 00:12:00,62.6,59.6,29.99,West,269,0.0,0.0,90,0.00,,---,0.00,0.00,VWS V14.01,2013-08-20 04:12:00,
2013-08-20 00:17:00,62.6,59.9,29.99,West,269,0.0,0.0,91,0.00,,---,0.00,0.00,VWS V14.01,2013-08-20 04:17:00,
2013-08-20 00:22:00,62.4,59.7,29.99,West,269,0.0,0.0,91,0.00,,---,0.00,0.00,VWS V14.01,2013-08-20 04:22:00,
2013-08-20 00:27:00,62.4,59.7,29.99,West,269,0.0,0.0,91,0.00,,---,0.00,0.00,VWS V14.01,2013-08-20 04:27:00,
2013-08-20 00:32:00,62.3,59.6,29.99,West,269,0.0,0.0,91,0.00,,---,0.00,0.00,VWS V14.01,2013-08-20 04:32:00,
2013-08-20 00:37:00,62.1,59.5,29.99,West,269,0.0,0.0,91,0.00,,---,0.00,0.00,VWS V14.01,2013-08-20 04:37:00,
2013-08-20 00:42:00,62.1,59.5,29.99,West,269,0.0,0.0,91,0.00,,---,0.00,0.00,VWS V14.01,2013-08-20 04:42:00,
2013-08-20 00:47:00,61.8,59.2,29.99,West,269,0.0,0.0,91,0.00,,---,0.00,0.00,VWS V14.01,2013-08-20 04:47:00,
2013-08-20 00:52:00,61.6,59.3,29.99,West,269,0.0,0.0,92,0.00,,---,0.00,0.00,VWS V14.01,2013-08-20 04:52:00,
2013-08-20 00:57:00,61.5,59.5,29.99,West,269,0.0,0.0,93,0.00,,---,0.00,0.00,VWS V14.01,2013-08-20 04:57:00,
2013-08-20 01:02:00,61.5,59.5,29.99,West,269,0.0,0.0,93,0.00,,---,0.00,0.00,VWS V14.01,2013-08-20 05:02:00,
2013-08-20 01:07:00,61.5,59.5,29.99,West,269,0.0,0.0,93,0.00,,---,0.00,0.00,VWS V14.01,2013-08-20 05:07:00,
2013-08-20 01:12:00,61.5,59.5,29.99,West,269,0.0,0.0,93,0.00,,---,0.00,0.00,VWS V14.01,2013-08-20 05:12:00,
2013-08-20 01:17:00,61.3,59.3,29.99,West,269,0.0,0.0,93,0.00,,---,0.00,0.00,VWS V14.01,2013-08-20 05:17:00,
2013-08-20 01:22:00,61.3,59.3,29.99,West,269,0.0,0.0,93,0.00,,---,0.00,0.00,VWS V14.01,2013-08-20 05:22:00,
2013-08-20 01:27:00,61.5,59.5,30.00,West,269,0.0,0.0,93,0.00,,---,0.00,0.00,VWS V14.01,2013-08-20 05:27:00,
2013-08-20 01:32:00,61.5,59.5,30.00,West,269,0.0,0.0,93,0.00,,---,0.00,0.00,VWS V14.01,2013-08-20 05:32:00,
2013-08-20 01:37:00,61.3,59.3,29.99,West,269,0.0,0.0,93,0.00,,---,0.00,0.00,VWS V14.01,2013-08-20 05:37:00,
2013-08-20 01:42:00,61.3,59.3,29.99,West,269,0.0,0.0,93,0.00,,---,0.00,0.00,VWS V14.01,2013-08-20 05:42:00,
2013-08-20 01:47:00,61.2,59.2,29.99,West,269,0.0,0.0,93,0.00,,---,0.00,0.00,VWS V14.01,2013-08-20 05:47:00,
2013-08-20 01:52:00,61.3,59.3,29.99,West,269,0.0,0.0,93,0.00,,---,0.00,0.00,VWS V14.01,2013-08-20 05:52:00,
2013-08-20 01:57:00,61.3,59.3,29.99,West,269,0.0,0.0,93,0.00,,---,0.00,0.00,VWS V14.01,2013-08-20 05:57:00,
2013-08-20 02:02:00,61.3,59.3,30.00,West,269,0.0,0.0,93,0.00,,---,0.00,0.00,VWS V14.01,2013-08-20 06:02:00,
2013-08-20 02:07:00,61.2,59.2,30.00,West,269,0.0,0.0,93,0.00,,---,0.00,0.00,VWS V14.01,2013-08-20 06:07:00,
2013-08-20 02:12:00,61.2,59.2,30.00,West,269,0.0,0.0,93,0.00,,---,0.00,0.00,VWS V14.01,2013-08-20 06:12:00,
2013-08-20 02:17:00,61.0,59.3,30.00,West,269,0.0,0.0,94,0.00,,---,0.00,0.00,VWS V14.01,2013-08-20 06:17:00,
2013-08-20 02:22:00,61.0,59.3,30.00,West,269,0.0,0.0,94,0.00,,---,0.00,0.00,VWS V14.01,2013-08-20 06:22:00,
2013-08-20 02:27:00,61.0,59.3,30.00,West,269,0.0,0.0,94,0.00,,---,0.00,0.00,VWS V14.01,2013-08-20 06:27:00,
2013-08-20 02:32:00,61.0,59.3,30.00,West,269,0.0,0.0,94,0.00,,---,0.00,0.00,VWS V14.01,2013-08-20 06:32:00,
2013-08-20 02:37:00,61.0,59.3,30.00,West,269,0.0,0.0,94,0.00,,---,0.00,0.00,VWS V14.01,2013-08-20 06:37:00,
2013-08-20 02:42:00,61.0,59.3,30.00,West,269,0.0,0.0,94,0.00,,---,0.00,0.00,VWS V14.01,2013-08-20 06:42:00,
2013-08-20 02:47:00,61.2,59.5,30.00,West,269,0.0,0.0,94,0.00,,---,0.00,0.00,VWS V14.01,2013-08-20 06:47:00,
2013-08-20 02:52:00,61.2,59.5,30.00,West,269,0.0,0.0,94,0.00,,---,0.00,0.00,VWS V14.01,2013-08-20 06:52:00,
2013-08-20 02:57:00,61.0,59.3,30.00,West,269,0.0,0.0,94,0.00,,---,0.00,0.00,VWS V14.01,2013-08-20 06:57:00,
2013-08-20 03:02:00,61.0,59.3,30.00,West,269,0.0,0.0,94,0.00,,---,0.00,0.00,VWS V14.01,2013-08-20 07:02:00,
2013-08-20 03:07:00,60.9,59.2,30.00,West,269,0.0,0.0,94,0.00,,---,0.00,0.00,VWS V14.01,2013-08-20 07:07:00,
2013-08-20 03:12:00,60.9,59.2,30.00,West,269,0.0,0.0,94,0.00,,---,0.00,0.00,VWS V14.01,2013-08-20 07:12:00,
2013-08-20 03:17:00,60.9,59.5,30.00,West,269,0.0,0.0,95,0.00,,---,0.00,0.00,VWS V14.01,2013-08-20 07:17:00,
2013-08-20 03:22:00,60.9,59.5,30.00,West,269,0.0,0.0,95,0.00,,---,0.00,0.00,VWS V14.01,2013-08-20 07:22:00,
2013-08-20 03:27:00,60.7,59.3,30.00,West,269,0.0,0.0,95,0.00,,---,0.00,0.00,VWS V14.01,2013-08-20 07:27:00,
2013-08-20 03:32:00,60.7,59.3,30.00,West,269,0.0,0.0,95,0.00,,---,0.00,0.00,VWS V14.01,2013-08-20 07:32:00,
2013-08-20 03:37:00,60.7,59.3,30.00,West,269,0.0,0.0,95,0.00,,---,0.00,0.00,VWS V14.01,2013-08-20 07:37:00,
2013-08-20 03:42:00,60.7,59.3,30.00,West,269,0.0,0.0,95,0.00,,---,0.00,0.00,VWS V14.01,2013-08-20 07:42:00,
2013-08-20 03:47:00,60.7,59.3,30.00,West,269,0.0,0.0,95,0.00,,---,0.00,0.00,VWS V14.01,2013-08-20 07:47:00,
2013-08-20 03:52:00,60.7,59.6,30.00,West,269,0.0,0.0,96,0.00,,---,0.00,0.00,VWS V14.01,2013-08-20 07:52:00,
2013-08-20 03:57:00,60.7,59.6,30.01,West,269,0.0,0.0,96,0.00,,---,0.00,0.00,VWS V14.01,2013-08-20 07:57:00,
2013-08-20 04:02:00,60.7,59.6,30.01,West,269,0.0,0.0,96,0.00,,---,0.00,0.00,VWS V14.01,2013-08-20 08:02:00,
2013-08-20 04:07:00,60.9,59.8,30.01,West,269,0.0,0.0,96,0.00,,---,0.00,0.00,VWS V14.01,2013-08-20 08:07:00,
2013-08-20 04:12:00,60.9,59.8,30.01,West,269,0.0,0.0,96,0.00,,---,0.00,0.00,VWS V14.01,2013-08-20 08:12:00,
2013-08-20 04:17:00,60.7,59.6,30.01,West,269,0.0,0.0,96,0.00,,---,0.00,0.00,VWS V14.01,2013-08-20 08:17:00,
2013-08-20 04:22:00,60.9,59.8,30.01,West,269,0.0,0.0,96,0.00,,---,0.00,0.00,VWS V14.01,2013-08-20 08:22:00,
2013-08-20 04:27:00,60.7,59.6,30.01,West,269,0.0,0.0,96,0.00,,---,0.00,0.00,VWS V14.01,2013-08-20 08:27:00,
2013-08-20 04:32:00,60.5,59.4,30.01,West,269,0.0,0.0,96,0.00,,---,0.00,0.00,VWS V14.01,2013-08-20 08:32:00,
2013-08-20 04:37:00,60.5,59.4,30.01,West,269,0.0,0.0,96,0.00,,---,0.00,0.00,VWS V14.01,2013-08-20 08:37:00,
2013-08-20 04:42:00,60.5,59.4,30.01,West,269,0.0,0.0,96,0.00,,---,0.00,0.00,VWS V14.01,2013-08-20 08:42:00,
2013-08-20 04:47:00,60.4,59.3,30.02,West,269,0.0,0.0,96,0.00,,---,0.00,0.00,VWS V14.01,2013-08-20 08:47:00,
2013-08-20 04:52:00,60.2,59.1,30.02,West,269,0.0,0.0,96,0.00,,---,0.00,0.00,VWS V14.01,2013-08-20 08:52:00,
2013-08-20 04:57:00,60.4,59.5,30.01,West,269,0.0,0.0,97,0.00,,---,0.00,0.00,VWS V14.01,2013-08-20 08:57:00,
2013-08-20 05:02:00,60.2,59.3,30.02,West,269,0.0,0.0,97,0.00,,---,0.00,0.00,VWS V14.01,2013-08-20 09:02:00,
2013-08-20 05:07:00,60.2,59.3,30.02,West,269,0.0,0.0,97,0.00,,---,0.00,0.00,VWS V14.01,2013-08-20 09:07:00,
2013-08-20 05:12:00,60.2,59.3,30.02,West,269,0.0,0.0,97,0.00,,---,0.00,0.00,VWS V14.01,2013-08-20 09:12:00,
2013-08-20 05:17:00,60.1,59.2,30.02,West,269,0.0,0.0,97,0.00,,---,0.00,0.00,VWS V14.01,2013-08-20 09:17:00,
2013-08-20 05:22:00,60.1,59.2,30.02,West,269,0.0,0.0,97,0.00,,---,0.00,0.00,VWS V14.01,2013-08-20 09:22:00,
2013-08-20 05:27:00,59.9,59.0,30.02,West,269,0.0,0.0,97,0.00,,---,0.00,0.00,VWS V14.01,2013-08-20 09:27:00,
2013-08-20 05:32:00,59.9,59.0,30.03,West,269,0.0,0.0,97,0.00,,---,0.00,0.00,VWS V14.01,2013-08-20 09:32:00,
2013-08-20 05:37:00,59.8,59.0,30.03,West,269,0.0,0.0,97,0.00,,---,0.00,0.00,VWS V14.01,2013-08-20 09:37:00,
2013-08-20 05:42:00,59.8,59.0,30.03,West,269,0.0,0.0,97,0.00,,---,0.00,0.00,VWS V14.01,2013-08-20 09:42:00,
2013-08-20 05:47:00,59.8,59.0,30.03,West,269,0.0,0.0,97,0.00,,---,0.00,0.00,VWS V14.01,2013-08-20 09:47:00,
2013-08-20 05:52:00,59.6,58.8,30.03,West,269,0.0,0.0,97,0.00,,---,0.00,0.00,VWS V14.01,2013-08-20 09:52:00,
2013-08-20 05:57:00,59.6,58.8,30.03,West,269,0.0,0.0,97,0.00,,---,0.00,0.00,VWS V14.01,2013-08-20 09:57:00,
2013-08-20 06:02:00,59.8,59.2,30.03,West,269,0.0,0.0,98,0.00,,---,0.00,0.00,VWS V14.01,2013-08-20 10:02:00,
2013-08-20 06:07:00,59.8,59.2,30.04,West,269,0.0,0.0,98,0.00,,---,0.00,5.00,VWS V14.01,2013-08-20 10:07:00,
2013-08-20 06:12:00,59.8,59.2,30.03,West,269,0.0,0.0,98,0.00,,---,0.00,9.00,VWS V14.01,2013-08-20 10:12:00,
2013-08-20 06:17:00,59.8,59.2,30.03,West,269,0.0,0.0,98,0.00,,---,0.00,12.00,VWS V14.01,2013-08-20 10:17:00,
2013-08-20 06:22:00,59.6,59.0,30.04,West,269,0.0,0.0,98,0.00,,---,0.00,14.00,VWS V14.01,2013-08-20 10:22:00,
2013-08-20 06:27:00,59.8,59.2,30.04,West,269,0.0,0.0,98,0.00,,---,0.00,18.00,VWS V14.01,2013-08-20 10:27:00,
2013-08-20 06:32:00,59.8,59.2,30.04,West,269,0.0,0.0,98,0.00,,---,0.00,21.00,VWS V14.01,2013-08-20 10:32:00,
2013-08-20 06:37:00,59.8,59.2,30.05,West,269,0.0,0.0,98,0.00,,---,0.00,23.00,VWS V14.01,2013-08-20 10:37:00,
2013-08-20 06:42:00,59.8,59.2,30.05,West,269,0.0,0.0,98,0.00,,---,0.00,26.00,VWS V14.01,2013-08-20 10:42:00,
2013-08-20 06:47:00,59.8,59.2,30.05,West,269,0.0,0.0,98,0.00,,---,0.00,30.00,VWS V14.01,2013-08-20 10:47:00,
2013-08-20 06:52:00,59.6,59.0,30.05,West,269,0.0,0.0,98,0.00,,---,0.00,33.00,VWS V14.01,2013-08-20 10:52:00,
2013-08-20 06:57:00,59.8,59.2,30.05,West,269,0.0,0.0,98,0.00,,---,0.00,37.00,VWS V14.01,2013-08-20 10:57:00,
2013-08-20 07:02:00,59.8,59.5,30.05,West,269,0.0,0.0,99,0.00,,---,0.00,39.00,VWS V14.01,2013-08-20 11:02:00,
2013-08-20 07:07:00,59.9,59.6,30.05,West,269,0.0,0.0,99,0.00,,---,0.00,42.00,VWS V14.01,2013-08-20 11:07:00,
2013-08-20 07:12:00,60.1,59.8,30.05,West,269,0.0,0.0,99,0.00,,---,0.00,44.00,VWS V14.01,2013-08-20 11:12:00,
2013-08-20 07:17:00,60.4,60.1,30.05,West,269,0.0,0.0,99,0.00,,---,0.00,47.00,VWS V14.01,2013-08-20 11:17:00,
2013-08-20 07:23:00,60.4,59.8,30.05,West,269,0.0,0.0,98,0.00,,---,0.00,51.00,VWS V14.01,2013-08-20 11:23:00,
2013-08-20 07:28:00,60.5,59.9,30.05,West,269,0.0,0.0,98,0.00,,---,0.00,54.00,VWS V14.01,2013-08-20 11:28:00,
2013-08-20 07:33:00,60.7,60.1,30.05,West,269,0.0,0.0,98,0.00,,---,0.00,60.00,VWS V14.01,2013-08-20 11:33:00,
2013-08-20 07:37:00,60.7,60.1,30.05,West,269,0.0,0.0,98,0.00,,---,0.00,62.00,VWS V14.01,2013-08-20 11:37:00,
2013-08-20 07:43:00,61.2,60.6,30.06,West,269,0.0,0.0,98,0.00,,---,0.00,67.00,VWS V14.01,2013-08-20 11:43:00,
2013-08-20 07:48:00,61.3,60.7,30.06,West,269,0.0,0.0,98,0.00,,---,0.00,69.00,VWS V14.01,2013-08-20 11:48:00,
2013-08-20 07:53:00,61.6,60.7,30.06,West,269,0.0,0.0,97,0.00,,---,0.00,72.00,VWS V14.01,2013-08-20 11:53:00,
2013-08-20 07:58:00,62.0,61.1,30.06,West,269,0.0,0.0,97,0.00,,---,0.00,74.00,VWS V14.01,2013-08-20 11:58:00,
2013-08-20 08:03:00,62.4,61.5,30.06,West,269,0.0,0.0,97,0.00,,---,0.00,77.00,VWS V14.01,2013-08-20 12:03:00,
2013-08-20 08:08:00,62.9,61.8,30.06,West,269,0.0,0.0,96,0.00,,---,0.00,79.00,VWS V14.01,2013-08-20 12:08:00,
2013-08-20 08:13:00,63.2,62.0,30.07,West,269,0.0,0.0,96,0.00,,---,0.00,81.00,VWS V14.01,2013-08-20 12:13:00,
2013-08-20 08:18:00,63.7,62.2,30.07,West,269,0.0,0.0,95,0.00,,---,0.00,84.00,VWS V14.01,2013-08-20 12:18:00,
2013-08-20 08:23:00,64.0,62.2,30.07,West,269,0.0,0.0,94,0.00,,---,0.00,86.00,VWS V14.01,2013-08-20 12:23:00,
2013-08-20 08:28:00,64.3,62.5,30.07,West,269,0.0,0.0,94,0.00,,---,0.00,90.00,VWS V14.01,2013-08-20 12:28:00,
2013-08-20 08:33:00,64.5,62.1,30.07,West,269,0.0,0.0,92,0.00,,---,0.00,95.00,VWS V14.01,2013-08-20 12:33:00,
2013-08-20 08:38:00,64.8,62.1,30.07,West,269,0.0,0.0,91,0.00,,---,0.00,97.00,VWS V14.01,2013-08-20 12:38:00,
2013-08-20 08:43:00,65.3,62.3,30.07,West,269,0.0,0.0,90,0.00,,---,0.00,100.00,VWS V14.01,2013-08-20 12:43:00,
2013-08-20 08:48:00,65.8,62.5,30.07,West,269,0.0,0.0,89,0.00,,---,0.00,102.00,VWS V14.01,2013-08-20 12:48:00,
2013-08-20 08:53:00,66.3,62.3,30.07,West,269,0.0,0.0,87,0.00,,---,0.00,104.00,VWS V14.01,2013-08-20 12:53:00,
2013-08-20 08:58:00,66.4,62.4,30.07,West,269,0.0,0.0,87,0.00,,---,0.00,107.00,VWS V14.01,2013-08-20 12:58:00,
2013-08-20 09:03:00,66.6,62.6,30.08,West,269,0.0,0.0,87,0.00,,---,0.00,111.00,VWS V14.01,2013-08-20 13:03:00,
2013-08-20 09:08:00,67.3,62.6,30.07,West,269,0.0,0.0,85,0.00,,---,0.00,116.00,VWS V14.01,2013-08-20 13:08:00,
2013-08-20 09:13:00,67.9,62.2,30.07,West,269,0.0,0.0,82,0.00,,---,0.00,237.00,VWS V14.01,2013-08-20 13:13:00,
2013-08-20 09:18:00,68.6,62.9,30.08,West,269,0.0,0.0,82,0.00,,---,0.00,325.00,VWS V14.01,2013-08-20 13:18:00,
2013-08-20 09:23:00,68.8,62.7,30.08,West,269,0.0,0.0,81,0.00,,---,0.00,302.00,VWS V14.01,2013-08-20 13:23:00,
2013-08-20 09:28:00,68.9,63.5,30.07,West,269,0.0,0.0,83,0.00,,---,0.00,483.00,VWS V14.01,2013-08-20 13:28:00,
2013-08-20 09:33:00,69.6,63.5,30.07,West,269,0.0,0.0,81,0.00,,---,0.00,496.00,VWS V14.01,2013-08-20 13:33:00,
2013-08-20 09:38:00,69.9,64.2,30.07,West,269,0.0,0.0,82,0.00,,---,0.00,517.00,VWS V14.01,2013-08-20 13:38:00,
2013-08-20 09:43:00,70.4,63.9,30.07,West,269,0.0,0.0,80,0.00,,---,0.00,534.00,VWS V14.01,2013-08-20 13:43:00,
2013-08-20 09:48:00,70.8,63.2,30.07,West,269,0.0,0.0,77,0.00,,---,0.00,547.00,VWS V14.01,2013-08-20 13:48:00,
2013-08-20 09:53:00,70.9,63.3,30.07,West,269,0.0,0.0,77,0.00,,---,0.00,563.00,VWS V14.01,2013-08-20 13:53:00,
2013-08-20 09:58:00,71.5,63.5,30.07,West,269,0.0,1.0,76,0.00,,---,0.00,573.00,VWS V14.01,2013-08-20 13:58:00,
2013-08-20 10:03:00,72.0,64.8,30.07,West,269,0.0,0.0,78,0.00,,---,0.00,584.00,VWS V14.01,2013-08-20 14:03:00,
2013-08-20 10:08:00,72.0,64.0,30.07,West,269,0.0,0.0,76,0.00,,---,0.00,598.00,VWS V14.01,2013-08-20 14:08:00,
2013-08-20 10:13:00,73.0,63.8,30.07,West,269,0.0,0.0,73,0.00,,---,0.00,617.00,VWS V14.01,2013-08-20 14:13:00,
2013-08-20 10:18:00,73.3,65.7,30.07,West,269,0.0,0.0,77,0.00,,---,0.00,628.00,VWS V14.01,2013-08-20 14:18:00,
2013-08-20 10:23:00,73.9,64.3,30.07,West,269,0.0,0.0,72,0.00,,---,0.00,643.00,VWS V14.01,2013-08-20 14:23:00,
2013-08-20 10:28:00,74.0,63.6,30.07,West,269,0.0,0.0,70,0.00,,---,0.00,657.00,VWS V14.01,2013-08-20 14:28:00,
2013-08-20 10:33:00,73.9,63.5,30.07,North,350,0.0,0.0,70,0.00,,---,0.00,675.00,VWS V14.01,2013-08-20 14:33:00,
2013-08-20 10:38:00,74.2,65.8,30.07,North,350,0.0,0.0,75,0.00,,---,0.00,684.00,VWS V14.01,2013-08-20 14:38:00,
2013-08-20 10:43:00,74.4,61.9,30.07,North,350,0.0,0.0,65,0.00,,---,0.00,694.00,VWS V14.01,2013-08-20 14:43:00,
2013-08-20 10:48:00,75.3,64.4,30.07,North,350,0.0,0.0,69,0.00,,---,0.00,707.00,VWS V14.01,2013-08-20 14:48:00,
2013-08-20 10:53:00,75.3,64.4,30.07,North,355,0.0,0.0,69,0.00,,---,0.00,714.00,VWS V14.01,2013-08-20 14:53:00,
2013-08-20 10:58:00,75.6,63.9,30.07,North,355,0.0,0.0,67,0.00,,---,0.00,722.00,VWS V14.01,2013-08-20 14:58:00,
2013-08-20 11:03:00,75.8,63.6,30.07,North,355,0.0,0.0,66,0.00,,---,0.00,733.00,VWS V14.01,2013-08-20 15:03:00,
2013-08-20 11:08:00,76.1,66.4,30.07,North,355,0.0,0.0,72,0.00,,---,0.00,744.00,VWS V14.01,2013-08-20 15:08:00,
2013-08-20 11:13:00,76.7,63.6,30.07,North,355,0.0,0.0,64,0.00,,---,0.00,756.00,VWS V14.01,2013-08-20 15:13:00,
2013-08-20 11:18:00,76.8,63.3,30.07,North,355,0.0,0.0,63,0.00,,---,0.00,766.00,VWS V14.01,2013-08-20 15:18:00,
2013-08-20 11:23:00,77.4,63.8,30.07,North,355,0.0,0.0,63,0.00,,---,0.00,775.00,VWS V14.01,2013-08-20 15:23:00,
2013-08-20 11:28:00,77.2,63.6,30.07,ENE,60,0.0,0.0,63,0.00,,---,0.00,784.00,VWS V14.01,2013-08-20 15:28:00,
2013-08-20 11:33:00,77.6,64.9,30.07,ENE,60,0.0,0.0,65,0.00,,---,0.00,793.00,VWS V14.01,2013-08-20 15:33:00,
2013-08-20 11:38:00,77.2,65.8,30.07,ENE,59,0.0,0.0,68,0.00,,---,0.00,802.00,VWS V14.01,2013-08-20 15:38:00,
2013-08-20 11:43:00,77.6,65.8,30.07,ENE,59,0.0,0.0,67,0.00,,---,0.00,814.00,VWS V14.01,2013-08-20 15:43:00,
2013-08-20 11:48:00,77.6,63.1,30.07,ENE,59,0.0,0.0,61,0.00,,---,0.00,821.00,VWS V14.01,2013-08-20 15:48:00,
2013-08-20 11:53:00,78.5,63.5,30.07,ENE,59,0.0,0.0,60,0.00,,---,0.00,826.00,VWS V14.01,2013-08-20 15:53:00,
2013-08-20 11:58:00,78.3,62.8,30.06,ENE,59,0.0,0.0,59,0.00,,---,0.00,830.00,VWS V14.01,2013-08-20 15:58:00,
2013-08-20 12:03:00,78.5,65.8,30.06,ENE,59,0.0,0.0,65,0.00,,---,0.00,838.00,VWS V14.01,2013-08-20 16:03:00,
2013-08-20 12:08:00,78.5,64.4,30.06,ENE,59,0.0,0.0,62,0.00,,---,0.00,833.00,VWS V14.01,2013-08-20 16:08:00,
2013-08-20 12:13:00,78.8,65.6,30.06,ENE,59,0.0,0.0,64,0.00,,---,0.00,840.00,VWS V14.01,2013-08-20 16:13:00,
2013-08-20 12:18:00,78.5,64.4,30.06,ENE,57,0.0,0.0,62,0.00,,---,0.00,846.00,VWS V14.01,2013-08-20 16:18:00,
2013-08-20 12:23:00,78.5,61.5,30.06,ENE,57,0.0,0.0,56,0.00,,---,0.00,858.00,VWS V14.01,2013-08-20 16:23:00,
2013-08-20 12:28:00,78.6,63.1,30.06,ESE,113,0.0,0.0,59,0.00,,---,0.00,896.00,VWS V14.01,2013-08-20 16:28:00,
2013-08-20 12:33:00,79.4,63.8,30.06,ESE,110,0.0,0.0,59,0.00,,---,0.00,947.00,VWS V14.01,2013-08-20 16:33:00,
2013-08-20 12:38:00,79.6,64.0,30.06,ESE,110,0.0,0.0,59,0.00,,---,0.00,754.00,VWS V14.01,2013-08-20 16:38:00,
2013-08-20 12:43:00,79.2,65.5,30.06,ESE,110,0.0,0.0,63,0.00,,---,0.00,831.00,VWS V14.01,2013-08-20 16:43:00,
2013-08-20 12:48:00,79.8,62.7,30.06,ESE,110,0.0,0.0,56,0.00,,---,0.00,898.00,VWS V14.01,2013-08-20 16:48:00,
2013-08-20 12:53:00,79.8,64.2,30.06,ESE,110,0.0,0.0,59,0.00,,---,0.00,868.00,VWS V14.01,2013-08-20 16:53:00,
2013-08-20 12:58:00,79.2,61.1,30.06,ESE,110,0.0,0.0,54,0.00,,---,0.00,863.00,VWS V14.01,2013-08-20 16:58:00,
2013-08-20 13:03:00,79.8,63.2,30.06,ESE,110,0.0,0.0,57,0.00,,---,0.00,868.00,VWS V14.01,2013-08-20 17:03:00,
2013-08-20 13:08:00,79.4,63.3,30.06,South,169,0.0,0.0,58,0.00,,---,0.00,881.00,VWS V14.01,2013-08-20 17:08:00,
2013-08-20 13:13:00,79.9,62.3,30.06,SSE,163,0.0,0.0,55,0.00,,---,0.00,918.00,VWS V14.01,2013-08-20 17:13:00,
2013-08-20 13:18:00,79.6,65.0,30.06,SSE,163,0.0,0.0,61,0.00,,---,0.00,156.00,VWS V14.01,2013-08-20 17:18:00,
2013-08-20 13:23:00,78.3,63.3,30.06,SSE,163,0.0,0.0,60,0.00,,---,0.00,909.00,VWS V14.01,2013-08-20 17:23:00,
2013-08-20 13:28:00,78.5,63.0,30.06,SSE,163,0.0,0.0,59,0.00,,---,0.00,316.00,VWS V14.01,2013-08-20 17:28:00,
2013-08-20 13:33:00,78.1,62.6,30.06,SSE,157,0.0,0.0,59,0.00,,---,0.00,225.00,VWS V14.01,2013-08-20 17:33:00,
2013-08-20 13:38:00,78.3,64.7,30.05,SSE,157,0.0,0.0,63,0.00,,---,0.00,925.00,VWS V14.01,2013-08-20 17:38:00,
2013-08-20 13:43:00,77.6,65.3,30.06,SSE,157,0.0,0.0,66,0.00,,---,0.00,265.00,VWS V14.01,2013-08-20 17:43:00,
2013-08-20 13:48:00,77.6,65.3,30.05,SSE,157,0.0,1.0,66,0.00,,---,0.00,930.00,VWS V14.01,2013-08-20 17:48:00,
2013-08-20 13:53:00,78.8,66.5,30.05,SSE,157,0.0,1.0,66,0.00,,---,0.00,803.00,VWS V14.01,2013-08-20 17:53:00,
2013-08-20 13:58:00,78.5,64.4,30.05,NE,51,0.0,1.0,62,0.00,,---,0.00,200.00,VWS V14.01,2013-08-20 17:58:00,
2013-08-20 14:03:00,77.4,64.3,30.05,NE,51,0.0,0.0,64,0.00,,---,0.00,213.00,VWS V14.01,2013-08-20 18:03:00,
2013-08-20 14:08:00,77.2,65.0,30.05,NE,51,0.0,0.0,66,0.00,,---,0.00,199.00,VWS V14.01,2013-08-20 18:08:00,
2013-08-20 14:13:00,78.3,65.6,30.05,NE,51,0.0,0.0,65,0.00,,---,0.00,919.00,VWS V14.01,2013-08-20 18:13:00,
2013-08-20 14:18:00,79.0,66.2,30.05,NE,51,0.0,0.0,65,0.00,,---,0.00,881.00,VWS V14.01,2013-08-20 18:18:00,
2013-08-20 14:23:00,79.8,64.2,30.05,ESE,105,0.0,2.0,59,0.00,,---,0.00,193.00,VWS V14.01,2013-08-20 18:23:00,
2013-08-20 14:28:00,78.6,65.0,30.05,ESE,105,0.0,2.0,63,0.00,,---,0.00,383.00,VWS V14.01,2013-08-20 18:28:00,
2013-08-20 14:33:00,78.1,65.8,30.05,ESE,105,0.0,0.0,66,0.00,,---,0.00,914.00,VWS V14.01,2013-08-20 18:33:00,
2013-08-20 14:38:00,78.1,65.8,30.05,ESE,105,0.0,0.0,66,0.00,,---,0.00,898.00,VWS V14.01,2013-08-20 18:38:00,
2013-08-20 14:43:00,78.5,65.8,30.05,ESE,103,0.0,0.0,65,0.00,,---,0.00,221.00,VWS V14.01,2013-08-20 18:43:00,
2013-08-20 14:48:00,77.9,64.3,30.05,ESE,103,0.0,0.0,63,0.00,,---,0.00,842.00,VWS V14.01,2013-08-20 18:48:00,
2013-08-20 14:53:00,78.1,62.1,30.05,ESE,103,0.0,0.0,58,0.00,,---,0.00,791.00,VWS V14.01,2013-08-20 18:53:00,
2013-08-20 14:58:00,79.2,66.9,30.05,ESE,103,0.0,0.0,66,0.00,,---,0.00,410.00,VWS V14.01,2013-08-20 18:58:00,
2013-08-20 15:03:00,78.6,64.5,30.05,SSW,196,0.0,0.0,62,0.00,,---,0.00,302.00,VWS V14.01,2013-08-20 19:03:00,
2013-08-20 15:08:00,77.7,65.0,30.05,SSW,192,0.0,0.0,65,0.00,,---,0.00,169.00,VWS V14.01,2013-08-20 19:08:00,
2013-08-20 15:13:00,76.7,63.2,30.05,South,188,0.0,0.0,63,0.00,,---,0.00,220.00,VWS V14.01,2013-08-20 19:13:00,
2013-08-20 15:18:00,77.0,63.0,30.05,South,186,0.0,0.0,62,0.00,,---,0.00,759.00,VWS V14.01,2013-08-20 19:18:00,
2013-08-20 15:23:00,77.4,62.4,30.05,South,186,0.0,0.0,60,0.00,,---,0.00,149.00,VWS V14.01,2013-08-20 19:23:00,
2013-08-20 15:28:00,77.4,63.4,30.05,South,186,0.0,0.0,62,0.00,,---,0.00,171.00,VWS V14.01,2013-08-20 19:28:00,
2013-08-20 15:33:00,77.6,63.6,30.05,SSE,153,0.0,0.0,62,0.00,,---,0.00,171.00,VWS V14.01,2013-08-20 19:33:00,
2013-08-20 15:38:00,77.7,63.2,30.04,SSE,153,0.0,2.0,61,0.00,,---,0.00,696.00,VWS V14.01,2013-08-20 19:38:00,
2013-08-20 15:43:00,78.3,62.8,30.04,SSE,153,0.0,2.0,59,0.00,,---,0.00,540.00,VWS V14.01,2013-08-20 19:43:00,
2013-08-20 15:48:00,78.1,61.6,30.04,SSE,153,0.0,0.0,57,0.00,,---,0.00,153.00,VWS V14.01,2013-08-20 19:48:00,
2013-08-20 15:53:00,77.9,63.8,30.04,ENE,67,0.0,0.0,62,0.00,,---,0.00,109.00,VWS V14.01,2013-08-20 19:53:00,
2013-08-20 15:58:00,78.1,63.6,30.04,ENE,57,0.0,2.0,61,0.00,,---,0.00,104.00,VWS V14.01,2013-08-20 19:58:00,
2013-08-20 16:03:00,77.9,62.4,30.04,East,96,0.0,0.0,59,0.00,,---,0.00,81.00,VWS V14.01,2013-08-20 20:03:00,
2013-08-20 16:08:00,77.7,64.1,30.04,East,96,0.0,0.0,63,0.00,,---,0.00,77.00,VWS V14.01,2013-08-20 20:08:00,
2013-08-20 16:13:00,77.4,63.8,30.04,East,97,0.0,1.0,63,0.00,,---,0.00,77.00,VWS V14.01,2013-08-20 20:13:00,
2013-08-20 16:18:00,77.6,62.6,30.04,ESE,106,0.0,0.0,60,0.00,,---,0.00,76.00,VWS V14.01,2013-08-20 20:18:00,
2013-08-20 16:24:00,77.2,64.1,30.04,ESE,104,0.0,0.0,64,0.00,,---,0.00,74.00,VWS V14.01,2013-08-20 20:24:00,
2013-08-20 16:29:00,77.6,60.7,30.04,ESE,104,0.0,0.0,56,0.00,,---,0.00,76.00,VWS V14.01,2013-08-20 20:29:00,
2013-08-20 16:34:00,77.7,61.8,30.04,ESE,104,0.0,0.0,58,0.00,,---,0.00,70.00,VWS V14.01,2013-08-20 20:34:00,
2013-08-20 16:39:00,77.4,61.5,30.04,ESE,104,0.0,0.0,58,0.00,,---,0.00,70.00,VWS V14.01,2013-08-20 20:39:00,
2013-08-20 16:44:00,77.2,61.8,30.04,East,98,0.0,0.0,59,0.00,,---,0.00,72.00,VWS V14.01,2013-08-20 20:44:00,
2013-08-20 16:49:00,77.6,61.7,30.05,East,98,0.0,0.0,58,0.00,,---,0.00,74.00,VWS V14.01,2013-08-20 20:49:00,
2013-08-20 16:54:00,77.4,62.4,30.04,East,98,0.0,0.0,60,0.00,,---,0.00,83.00,VWS V14.01,2013-08-20 20:54:00,
2013-08-20 16:59:00,77.4,61.5,30.05,East,98,0.0,0.0,58,0.00,,---,0.00,90.00,VWS V14.01,2013-08-20 20:59:00,
2013-08-20 17:04:00,77.0,62.5,30.05,East,98,0.0,0.0,61,0.00,,---,0.00,76.00,VWS V14.01,2013-08-20 21:04:00,
2013-08-20 17:09:00,77.0,61.1,30.04,East,98,0.0,0.0,58,0.00,,---,0.00,62.00,VWS V14.01,2013-08-20 21:09:00,
2013-08-20 17:14:00,77.2,61.8,30.04,East,98,0.0,0.0,59,0.00,,---,0.00,72.00,VWS V14.01,2013-08-20 21:14:00,
2013-08-20 17:19:00,77.4,62.0,30.04,East,98,0.0,0.0,59,0.00,,---,0.00,69.00,VWS V14.01,2013-08-20 21:19:00,
2013-08-20 17:24:00,76.8,61.9,30.05,East,81,0.0,1.0,60,0.00,,---,0.00,56.00,VWS V14.01,2013-08-20 21:24:00,
2013-08-20 17:29:00,76.5,62.1,30.05,East,81,0.0,1.0,61,0.00,,---,0.00,53.00,VWS V14.01,2013-08-20 21:29:00,
2013-08-20 17:34:00,76.5,62.1,30.05,East,81,0.0,0.0,61,0.00,,---,0.00,49.00,VWS V14.01,2013-08-20 21:34:00,
2013-08-20 17:39:00,76.8,62.3,30.05,East,81,0.0,0.0,61,0.00,,---,0.00,47.00,VWS V14.01,2013-08-20 21:39:00,
2013-08-20 17:44:00,76.8,60.9,30.05,East,81,0.0,0.0,58,0.00,,---,0.00,46.00,VWS V14.01,2013-08-20 21:44:00,
2013-08-20 17:49:00,76.5,62.5,30.05,East,81,0.0,0.0,62,0.00,,---,0.00,46.00,VWS V14.01,2013-08-20 21:49:00,
2013-08-20 17:54:00,76.5,62.5,30.05,East,81,0.0,0.0,62,0.00,,---,0.00,42.00,VWS V14.01,2013-08-20 21:54:00,
2013-08-20 17:59:00,76.1,62.6,30.05,East,81,0.0,0.0,63,0.00,,---,0.00,39.00,VWS V14.01,2013-08-20 21:59:00,
2013-08-20 18:04:00,76.1,62.6,30.05,East,81,0.0,0.0,63,0.00,,---,0.00,37.00,VWS V14.01,2013-08-20 22:04:00,
2013-08-20 18:09:00,76.0,63.0,30.05,East,81,0.0,0.0,64,0.00,,---,0.00,35.00,VWS V14.01,2013-08-20 22:09:00,
2013-08-20 18:14:00,75.6,64.3,30.05,East,81,0.0,0.0,68,0.00,,---,0.00,33.00,VWS V14.01,2013-08-20 22:14:00,
2013-08-20 18:19:00,75.3,64.4,30.05,East,81,0.0,0.0,69,0.00,,---,0.00,32.00,VWS V14.01,2013-08-20 22:19:00,
2013-08-20 18:24:00,75.3,63.6,30.05,East,81,0.0,0.0,67,0.00,,---,0.00,30.00,VWS V14.01,2013-08-20 22:24:00,
2013-08-20 18:29:00,74.9,64.5,30.05,East,81,0.0,0.0,70,0.00,,---,0.00,28.00,VWS V14.01,2013-08-20 22:29:00,
2013-08-20 18:34:00,74.6,64.6,30.05,East,81,0.0,0.0,71,0.00,,---,0.00,25.00,VWS V14.01,2013-08-20 22:34:00,
2013-08-20 18:39:00,74.4,64.4,30.05,East,81,0.0,0.0,71,0.00,,---,0.00,23.00,VWS V14.01,2013-08-20 22:39:00,
2013-08-20 18:44:00,74.2,65.4,30.05,East,81,0.0,0.0,74,0.00,,---,0.00,21.00,VWS V14.01,2013-08-20 22:44:00,
2013-08-20 18:49:00,73.7,65.7,30.06,East,81,0.0,0.0,76,0.00,,---,0.00,19.00,VWS V14.01,2013-08-20 22:49:00,
2013-08-20 18:54:00,73.5,65.5,30.06,East,81,0.0,0.0,76,0.00,,---,0.00,18.00,VWS V14.01,2013-08-20 22:54:00,
2013-08-20 18:59:00,73.2,65.6,30.06,East,81,0.0,0.0,77,0.00,,---,0.00,18.00,VWS V14.01,2013-08-20 22:59:00,
2013-08-20 19:04:00,72.8,65.6,30.06,East,81,0.0,0.0,78,0.00,,---,0.00,16.00,VWS V14.01,2013-08-20 23:04:00,
2013-08-20 19:09:00,72.5,65.6,30.06,East,81,0.0,0.0,79,0.00,,---,0.00,14.00,VWS V14.01,2013-08-20 23:09:00,
2013-08-20 19:14:00,72.1,65.2,30.06,East,81,0.0,0.0,79,0.00,,---,0.00,12.00,VWS V14.01,2013-08-20 23:14:00,
2013-08-20 19:19:00,71.8,65.3,30.06,East,81,0.0,0.0,80,0.00,,---,0.00,11.00,VWS V14.01,2013-08-20 23:19:00,
2013-08-20 19:24:00,71.5,65.4,30.06,East,81,0.0,0.0,81,0.00,,---,0.00,9.00,VWS V14.01,2013-08-20 23:24:00,
2013-08-20 19:29:00,71.1,65.0,30.06,East,81,0.0,0.0,81,0.00,,---,0.00,5.00,VWS V14.01,2013-08-20 23:29:00,
2013-08-20 19:34:00,70.8,65.0,30.06,East,81,0.0,0.0,82,0.00,,---,0.00,0.00,VWS V14.01,2013-08-20 23:34:00,
2013-08-20 19:39:00,70.4,64.3,30.06,East,81,0.0,0.0,81,0.00,,---,0.00,0.00,VWS V14.01,2013-08-20 23:39:00,
2013-08-20 19:44:00,70.1,64.0,30.06,East,81,0.0,0.0,81,0.00,,---,0.00,0.00,VWS V14.01,2013-08-20 23:44:00,
2013-08-20 19:49:00,69.8,63.7,30.06,East,81,0.0,0.0,81,0.00,,---,0.00,0.00,VWS V14.01,2013-08-20 23:49:00,
2013-08-20 19:55:00,69.4,63.3,30.06,East,81,0.0,0.0,81,0.00,,---,0.00,0.00,VWS V14.01,2013-08-20 23:55:00,
2013-08-20 20:00:00,69.3,63.6,30.06,East,81,0.0,0.0,82,0.00,,---,0.00,0.00,VWS V14.01,2013-08-21 00:00:00,
2013-08-20 20:05:00,69.1,63.4,30.07,East,81,0.0,0.0,82,0.00,,---,0.00,0.00,VWS V14.01,2013-08-21 00:05:00,
2013-08-20 20:10:00,68.8,63.4,30.07,East,81,0.0,0.0,83,0.00,,---,0.00,0.00,VWS V14.01,2013-08-21 00:10:00,
2013-08-20 20:15:00,68.6,62.5,30.07,East,81,0.0,0.0,81,0.00,,---,0.00,0.00,VWS V14.01,2013-08-21 00:15:00,
2013-08-20 20:20:00,68.3,62.6,30.07,East,81,0.0,0.0,82,0.00,,---,0.00,0.00,VWS V14.01,2013-08-21 00:20:00,
2013-08-20 20:25:00,68.3,61.9,30.07,East,81,0.0,0.0,80,0.00,,---,0.00,0.00,VWS V14.01,2013-08-21 00:25:00,
2013-08-20 20:30:00,68.3,61.9,30.07,East,81,0.0,0.0,80,0.00,,---,0.00,0.00,VWS V14.01,2013-08-21 00:30:00,
2013-08-20 20:35:00,68.3,61.5,30.07,East,81,0.0,0.0,79,0.00,,---,0.00,0.00,VWS V14.01,2013-08-21 00:35:00,
2013-08-20 20:40:00,68.1,61.3,30.08,East,81,0.0,0.0,79,0.00,,---,0.00,0.00,VWS V14.01,2013-08-21 00:40:00,
2013-08-20 20:45:00,67.8,61.4,30.08,East,81,0.0,0.0,80,0.00,,---,0.00,0.00,VWS V14.01,2013-08-21 00:45:00,
2013-08-20 20:50:00,67.6,61.6,30.08,East,81,0.0,0.0,81,0.00,,---,0.00,0.00,VWS V14.01,2013-08-21 00:50:00,
2013-08-20 20:55:00,67.3,61.6,30.08,East,81,0.0,0.0,82,0.00,,---,0.00,0.00,VWS V14.01,2013-08-21 00:55:00,
2013-08-20 21:00:00,67.1,61.1,30.08,East,81,0.0,0.0,81,0.00,,---,0.00,0.00,VWS V14.01,2013-08-21 01:00:00,
2013-08-20 21:05:00,67.1,61.1,30.08,East,81,0.0,0.0,81,0.00,,---,0.00,0.00,VWS V14.01,2013-08-21 01:05:00,
2013-08-20 21:10:00,66.9,60.9,30.08,East,81,0.0,0.0,81,0.00,,---,0.00,0.00,VWS V14.01,2013-08-21 01:10:00,
2013-08-20 21:15:00,66.8,60.8,30.08,East,81,0.0,0.0,81,0.00,,---,0.00,0.00,VWS V14.01,2013-08-21 01:15:00,
2013-08-20 21:19:00,66.4,60.0,30.09,East,81,0.0,0.0,80,0.00,,---,0.00,0.00,VWS V14.01,2013-08-21 01:19:00,
2013-08-20 21:24:00,66.4,60.4,30.09,East,81,0.0,0.0,81,0.00,,---,0.00,0.00,VWS V14.01,2013-08-21 01:24:00,
2013-08-20 21:29:00,66.3,60.7,30.09,East,81,0.0,0.0,82,0.00,,---,0.00,0.00,VWS V14.01,2013-08-21 01:29:00,
2013-08-20 21:34:00,66.1,60.8,30.09,East,81,0.0,0.0,83,0.00,,---,0.00,0.00,VWS V14.01,2013-08-21 01:34:00,
2013-08-20 21:39:00,66.0,60.7,30.09,East,81,0.0,0.0,83,0.00,,---,0.00,0.00,VWS V14.01,2013-08-21 01:39:00,
2013-08-20 21:45:00,66.0,60.7,30.09,East,81,0.0,0.0,83,0.00,,---,0.00,0.00,VWS V14.01,2013-08-21 01:45:00,
2013-08-20 21:50:00,66.0,60.7,30.09,East,81,0.0,0.0,83,0.00,,---,0.00,0.00,VWS V14.01,2013-08-21 01:50:00,
2013-08-20 21:54:00,66.0,60.7,30.09,East,81,0.0,0.0,83,0.00,,---,0.00,0.00,VWS V14.01,2013-08-21 01:54:00,
2013-08-20 22:00:00,66.1,60.5,30.09,East,81,0.0,0.0,82,0.00,,---,0.00,0.00,VWS V14.01,2013-08-21 02:00:00,
2013-08-20 22:05:00,66.1,60.8,30.09,East,81,0.0,0.0,83,0.00,,---,0.00,0.00,VWS V14.01,2013-08-21 02:05:00,
2013-08-20 22:10:00,66.1,60.8,30.09,East,81,0.0,0.0,83,0.00,,---,0.00,0.00,VWS V14.01,2013-08-21 02:10:00,
2013-08-20 22:15:00,66.1,60.5,30.09,East,81,0.0,0.0,82,0.00,,---,0.00,0.00,VWS V14.01,2013-08-21 02:15:00,
2013-08-20 22:20:00,66.0,60.3,30.09,East,81,0.0,0.0,82,0.00,,---,0.00,0.00,VWS V14.01,2013-08-21 02:20:00,
2013-08-20 22:25:00,65.8,60.2,30.09,East,81,0.0,0.0,82,0.00,,---,0.00,0.00,VWS V14.01,2013-08-21 02:25:00,
2013-08-20 22:30:00,65.8,59.8,30.09,East,81,0.0,0.0,81,0.00,,---,0.00,0.00,VWS V14.01,2013-08-21 02:30:00,
2013-08-20 22:35:00,65.6,60.3,30.09,East,81,0.0,0.0,83,0.00,,---,0.00,0.00,VWS V14.01,2013-08-21 02:35:00,
2013-08-20 22:40:00,65.3,60.3,30.09,East,81,0.0,0.0,84,0.00,,---,0.00,0.00,VWS V14.01,2013-08-21 02:40:00,
2013-08-20 22:45:00,65.0,60.0,30.09,East,81,0.0,0.0,84,0.00,,---,0.00,0.00,VWS V14.01,2013-08-21 02:45:00,
2013-08-20 22:50:00,64.8,59.9,30.09,East,81,0.0,0.0,84,0.00,,---,0.00,0.00,VWS V14.01,2013-08-21 02:50:00,
2013-08-20 22:55:00,64.7,59.8,30.09,East,81,0.0,0.0,84,0.00,,---,0.00,0.00,VWS V14.01,2013-08-21 02:55:00,
2013-08-20 23:00:00,64.5,59.9,30.09,East,81,0.0,0.0,85,0.00,,---,0.00,0.00,VWS V14.01,2013-08-21 03:00:00,
2013-08-20 23:05:00,64.2,59.6,30.09,East,81,0.0,0.0,85,0.00,,---,0.00,0.00,VWS V14.01,2013-08-21 03:05:00,
2013-08-20 23:10:00,63.9,59.6,30.09,East,81,0.0,0.0,86,0.00,,---,0.00,0.00,VWS V14.01,2013-08-21 03:10:00,
2013-08-20 23:15:00,63.7,59.4,30.09,East,81,0.0,0.0,86,0.00,,---,0.00,0.00,VWS V14.01,2013-08-21 03:15:00,
2013-08-20 23:20:00,63.7,59.8,30.09,East,81,0.0,0.0,87,0.00,,---,0.00,0.00,VWS V14.01,2013-08-21 03:20:00,
2013-08-20 23:25:00,63.4,59.8,30.10,East,81,0.0,0.0,88,0.00,,---,0.00,0.00,VWS V14.01,2013-08-21 03:25:00,
2013-08-20 23:30:00,63.4,59.8,30.10,East,81,0.0,0.0,88,0.00,,---,0.00,0.00,VWS V14.01,2013-08-21 03:30:00,
2013-08-20 23:35:00,63.4,59.8,30.10,East,81,0.0,0.0,88,0.00,,---,0.00,0.00,VWS V14.01,2013-08-21 03:35:00,
2013-08-20 23:40:00,63.2,59.9,30.10,East,81,0.0,0.0,89,0.00,,---,0.00,0.00,VWS V14.01,2013-08-21 03:40:00,
2013-08-20 23:45:00,63.1,59.8,30.10,East,81,0.0,0.0,89,0.00,,---,0.00,0.00,VWS V14.01,2013-08-21 03:45:00,
2013-08-20 23:50:00,63.1,60.1,30.10,East,81,0.0,0.0,90,0.00,,---,0.00,0.00,VWS V14.01,2013-08-21 03:50:00,
2013-08-20 23:55:00,63.1,60.1,30.10,East,81,0.0,0.0,90,0.00,,---,0.00,0.00,VWS V14.01,2013-08-21 03:55:00,